Latest Weather Observations for Cape Moreton

IDQ60801

Issued at 4:12 pm EST Saturday 5 December 2020 (issued every 10 minutes, with the page automatically refreshed every 10 minutes)

About weather observations | Map of weather stations | Latest weather observations for QLD | Other Formats
Station Details ID: 040043 Name: CAPE MORETON LIGHTHOUSE Lat: -27.03 Lon: 153.47 Height: 99.9 m
Data from the previous 72 hours. | See also: Recent months at Cape Moreton
Date/Time
EST
Temp
°C
App
Temp
°C
Dew
Point
°C
Rel
Hum
%
Delta-T
°C
Wind Press
QNH
hPa
Press
MSL
hPa
Rain since
9am
mm
Dir  Spd
km/h
Gust
km/h
Spd
kts
Gust
kts
05/04:00pm 25.6 23.3 21.3 77 2.9 NNE 35 44 19 24 1010.3 1009.8 0.0
05/03:30pm 25.5 23.3 20.7 75 3.2 NNE 33 44 18 24 1010.0 1009.5 0.0
05/03:00pm 26.2 24.1 20.5 71 3.8 NNE 32 44 17 24 1010.7 1010.2 0.0
05/02:30pm 26.6 25.2 20.4 69 4.1 NNE 28 37 15 20 1011.5 1011.0 0.0
05/02:00pm 27.1 26.6 21.4 71 3.8 NNE 26 33 14 18 1012.1 1011.7 0.0
05/01:30pm 27.1 26.7 20.9 69 4.1 NNE 24 32 13 17 1012.3 1011.9 0.0
05/01:00pm 27.4 26.5 21.4 70 4.0 NNE 28 33 15 18 1012.7 1012.2 0.0
05/12:30pm 27.7 27.2 21.5 69 4.2 NNE 26 35 14 19 1012.9 1012.4 0.0
05/12:00pm 27.7 27.7 21.0 67 4.5 NNE 22 33 12 18 1013.2 1012.7 0.0
05/11:30am 28.7 29.7 21.7 66 4.7 NNE 19 28 10 15 1013.5 1013.0 0.0
05/11:00am 27.0 27.6 21.1 70 3.9 N 19 26 10 14 1013.9 1013.4 0.0
05/10:30am 27.3 27.9 21.1 69 4.1 N 19 28 10 15 1014.2 1013.7 0.0
05/10:00am 26.3 26.5 20.6 71 3.8 N 20 28 11 15 1014.5 1014.0 0.0
05/09:30am 25.7 25.9 20.5 73 3.4 N 20 28 11 15 1014.6 1014.1 0.0
05/09:00am 25.0 24.7 20.3 75 3.1 N 22 28 12 15 1014.8 1014.3 0.0
05/08:30am 25.4 25.7 20.4 74 3.3 NNW 19 26 10 14 1014.9 1014.4 0.0
05/08:00am 24.8 24.7 20.7 78 2.7 NNW 22 32 12 17 1014.9 1014.4 0.0
05/07:30am 24.5 24.4 20.8 80 2.4 NNW 22 28 12 15 1014.4 1013.9 0.0
05/07:00am 24.0 23.4 20.5 81 2.3 NNW 24 32 13 17 1014.6 1014.1 0.0
05/06:30am 23.7 23.1 20.4 82 2.2 NNW 24 32 13 17 1014.1 1013.6 0.0
05/06:00am 23.4 23.2 20.5 84 1.9 NNW 22 30 12 16 1013.7 1013.2 0.0
05/05:30am 23.1 22.2 20.6 86 1.6 NNW 26 33 14 18 1013.4 1012.9 0.0
05/05:00am 22.9 22.8 20.8 88 1.4 NNW 22 30 12 16 1013.1 1012.6 0.0
05/04:30am 23.0 22.2 20.9 88 1.4 NNW 26 33 14 18 1012.7 1012.2 0.0
05/04:00am 23.1 22.7 21.0 88 1.4 NNW 24 32 13 17 1012.5 1012.1 0.0
05/03:30am 23.1 21.8 20.6 86 1.6 NNW 28 37 15 20 1012.1 1011.7 0.0
05/03:00am 23.2 22.8 20.9 87 1.5 NNW 24 32 13 17 1012.3 1011.9 0.0
05/02:30am 23.4 23.1 21.1 87 1.5 NNW 24 35 13 19 1011.9 1011.5 0.0
05/02:00am 23.6 23.2 20.9 85 1.8 NNW 24 33 13 18 1012.3 1011.9 0.0
05/01:30am 23.6 20.9 20.5 83 2.0 N 35 43 19 23 1012.0 1011.6 0.0
05/01:00am 23.6 20.9 20.5 83 2.0 NNW 35 43 19 23 1011.9 1011.5 0.0
05/12:30am 23.8 21.5 21.3 86 1.7 N 35 44 19 24 1012.5 1012.1 0.0
05/12:00am 23.8 22.4 21.1 85 1.8 N 30 39 16 21 1013.3 1012.8 0.0
 
Date/Time
EST
Temp
°C
App
Temp
°C
Dew
Point
°C
Rel
Hum
%
Delta-T
°C
Wind Press
QNH
hPa
Press
MSL
hPa
Rain since
9am
mm
Dir  Spd
km/h
Gust
km/h
Spd
kts
Gust
kts
04/11:30pm 24.0 23.4 21.3 85 1.8 NNW 26 35 14 19 1013.7 1013.2 0.0
04/11:00pm 24.0 21.7 21.3 85 1.8 N 35 44 19 24 1013.2 1012.7 0.0
04/10:30pm 24.1 23.5 21.2 84 1.9 N 26 33 14 18 1014.2 1013.7 0.0
04/10:00pm 24.3 23.1 21.6 85 1.8 N 30 37 16 20 1014.2 1013.7 0.0
04/09:30pm 24.3 24.2 21.4 84 1.9 N 24 32 13 17 1014.2 1013.7 0.0
04/09:00pm 24.2 23.5 21.1 83 2.0 N 26 35 14 19 1013.7 1013.2 0.0
04/08:30pm 24.3 23.8 21.4 84 1.9 NNE 26 37 14 20 1013.3 1012.8 0.0
04/08:00pm 24.4 23.8 21.3 83 2.1 NNE 26 35 14 19 1012.9 1012.4 0.0
04/07:30pm 24.4 23.7 21.1 82 2.2 NNE 26 32 14 17 1012.7 1012.2 0.0
04/07:00pm 24.4 23.4 21.3 83 2.1 NNE 28 35 15 19 1012.1 1011.7 0.0
04/06:30pm 24.6 23.6 21.3 82 2.2 NNE 28 35 15 19 1011.8 1011.4 0.0
04/06:00pm 24.7 24.0 21.0 80 2.4 NNE 26 32 14 17 1011.8 1011.4 0.0
04/05:30pm 25.1 24.3 20.8 77 2.8 NNE 26 33 14 18 1011.6 1011.1 0.0
04/05:00pm 25.3 24.5 20.8 76 3.0 NE 26 33 14 18 1011.4 1010.9 0.0
04/04:30pm 25.3 24.7 21.2 78 2.7 NE 26 33 14 18 1011.3 1010.8 0.0
04/04:00pm 25.8 24.7 21.0 75 3.2 NE 28 35 15 19 1011.4 1010.9 0.0
04/03:30pm 26.4 25.8 21.2 73 3.5 NE 26 33 14 18 1011.4 1010.9 0.0
04/03:00pm 26.8 26.2 21.3 72 3.7 NE 26 33 14 18 1011.7 1011.3 0.0
04/02:30pm 26.2 25.8 21.0 73 3.4 NNE 24 33 13 18 1012.2 1011.8 0.0
04/02:00pm 27.5 27.7 21.3 69 4.1 NNE 22 32 12 17 1012.8 1012.3 0.0
04/01:30pm 27.7 27.8 20.3 64 4.9 NNE 20 32 11 17 1013.3 1012.8 0.0
04/01:00pm 27.8 28.8 21.1 67 4.5 N 17 24 9 13 1013.6 1013.1 0.0
04/12:30pm 27.0 27.1 20.3 66 4.4 N 20 28 11 15 1014.0 1013.5 0.0
04/12:00pm 25.5 24.4 20.3 73 3.4 N 26 33 14 18 1014.3 1013.8 0.0
04/11:30am 27.1 27.4 20.7 68 4.2 NNW 20 35 11 19 1014.7 1014.2 0.0
04/11:00am 27.1 27.4 21.6 72 3.7 NNW 22 35 12 19 1015.3 1014.8 0.0
04/10:30am 25.6 25.5 20.8 75 3.2 NW 22 28 12 15 1015.9 1015.4 0.0
04/10:00am 26.7 27.4 21.2 72 3.7 NW 19 24 10 13 1016.6 1016.1 0.0
04/09:30am 24.7 25.4 21.2 81 2.3 NW 19 26 10 14 1016.8 1016.3 0.0
04/09:00am 25.0 25.7 20.5 76 2.9 NW 17 20 9 11 1017.2 1016.7 0.0
04/08:30am 25.6 27.5 20.6 74 3.3 NNW 11 13 6 7 1017.8 1017.3 0.0
04/08:00am 26.3 29.0 20.2 69 4.0 E 6 9 3 5 1018.3 1017.8 0.0
04/07:30am 24.6 28.2 19.7 74 3.2 CALM 0 0 0 0 1018.5 1018.0 0.0
04/07:00am 24.0 26.4 19.7 77 2.8 SSE 6 7 3 4 1018.8 1018.3 0.0
04/06:30am 23.5 25.7 19.6 79 2.5 S 7 7 4 4 1018.4 1017.9 0.0
04/06:00am 23.0 24.6 19.2 79 2.4 SW 9 11 5 6 1018.6 1018.1 0.0
04/05:30am 22.5 23.5 19.5 83 1.9 SSW 13 15 7 8 1018.7 1018.2 0.0
04/05:00am 22.5 23.7 20.0 86 1.6 S 13 15 7 8 1018.4 1017.9 0.0
04/04:30am 22.5 23.8 20.2 87 1.5 SSW 13 17 7 9 1018.4 1017.9 0.0
04/04:00am 22.3 23.7 20.4 89 1.2 SSW 13 17 7 9 1018.3 1017.8 0.0
04/03:30am 22.7 23.6 20.8 89 1.2 SSE 17 20 9 11 1018.1 1017.6 0.0
04/03:00am 22.7 23.7 20.2 86 1.6 SSE 15 19 8 10 1017.9 1017.4 0.0
04/02:30am 22.8 24.3 20.5 87 1.5 S 13 15 7 8 1018.3 1017.8 0.0
04/02:00am 22.4 23.9 19.8 85 1.7 SSW 11 13 6 7 1018.6 1018.1 0.0
04/01:30am 22.7 24.7 19.9 84 1.8 SSW 9 13 5 7 1018.9 1018.4 0.0
04/01:00am 22.8 25.2 19.6 82 2.1 S 6 9 3 5 1018.8 1018.3 0.0
04/12:30am 23.2 25.4 19.6 80 2.3 E 7 11 4 6 1019.0 1018.5 0.0
04/12:00am 23.3 24.9 19.2 78 2.6 ENE 9 13 5 7 1019.0 1018.5 0.0
 
Date/Time
EST
Temp
°C
App
Temp
°C
Dew
Point
°C
Rel
Hum
%
Delta-T
°C
Wind Press
QNH
hPa
Press
MSL
hPa
Rain since
9am
mm
Dir  Spd
km/h
Gust
km/h
Spd
kts
Gust
kts
03/11:30pm 23.4 24.6 19.8 80 2.3 E 13 15 7 8 1018.9 1018.4 0.0
03/11:00pm 23.5 24.8 19.4 78 2.6 ENE 11 13 6 7 1019.3 1018.8 0.0
03/10:30pm 23.3 24.7 19.5 79 2.4 ENE 11 11 6 6 1019.4 1018.9 0.0
03/10:00pm 23.3 25.2 19.7 80 2.3 E 9 11 5 6 1019.3 1018.8 0.0
03/09:30pm 23.1 24.6 19.7 81 2.2 E 11 13 6 7 1019.2 1018.7 0.0
03/09:00pm 23.1 24.1 19.5 80 2.3 E 13 13 7 7 1019.2 1018.7 0.0
03/08:30pm 23.3 24.5 19.9 81 2.2 E 13 15 7 8 1019.2 1018.7 0.0
03/08:00pm 23.3 24.7 19.5 79 2.4 E 11 13 6 7 1019.4 1018.9 0.0
03/07:30pm 23.7 25.2 19.8 79 2.5 E 11 15 6 8 1019.2 1018.7 0.0
03/07:00pm 23.9 24.2 19.6 77 2.8 ENE 17 20 9 11 1018.6 1018.1 0.0
03/06:30pm 24.0 24.6 19.5 76 2.9 ENE 15 19 8 10 1018.4 1017.9 0.0
03/06:00pm 24.3 24.7 19.1 73 3.3 ENE 15 17 8 9 1018.1 1017.6 0.0
03/05:30pm 24.6 25.6 19.4 73 3.3 ENE 13 15 7 8 1017.9 1017.4 0.0
03/05:00pm 24.9 25.9 19.5 72 3.5 ENE 13 17 7 9 1017.9 1017.4 0.0
03/04:30pm 25.5 26.3 19.9 71 3.6 ENE 15 17 8 9 1017.8 1017.3 0.0
03/04:00pm 25.9 26.7 19.8 69 4.0 ENE 15 19 8 10 1017.6 1017.1 0.0
03/03:30pm 26.6 27.6 19.5 65 4.6 NE 13 17 7 9 1017.9 1017.4 0.0
03/03:00pm 27.2 28.4 19.8 64 4.8 NE 13 17 7 9 1018.0 1017.5 0.0
03/02:30pm 27.7 29.1 20.3 64 4.9 NE 13 17 7 9 1018.2 1017.7 0.0
03/02:00pm 28.4 29.8 20.4 62 5.3 NNE 13 19 7 10 1018.2 1017.7 0.0
03/01:30pm 26.7 27.8 19.6 65 4.6 N 13 17 7 9 1018.5 1018.0 0.0
03/01:00pm 28.2 29.4 20.0 61 5.4 NNE 13 19 7 10 1018.8 1018.3 0.0
03/12:30pm 27.5 28.7 19.8 63 5.0 N 13 19 7 10 1019.0 1018.5 0.0
03/12:00pm 28.6 29.6 20.3 60 5.5 NNE 15 20 8 11 1019.2 1018.7 0.0
03/11:30am 27.1 27.4 19.7 64 4.8 NNE 17 24 9 13 1019.5 1019.0 0.0
03/11:00am 27.7 27.8 19.2 60 5.5 NNE 17 24 9 13 1019.8 1019.3 0.0
03/10:30am 27.8 28.0 19.3 60 5.5 NNE 17 24 9 13 1019.9 1019.4 0.0
03/10:00am 28.6 28.9 19.5 58 5.9 NE 17 22 9 12 1020.0 1019.5 0.0
03/09:30am 27.9 28.3 19.9 61 5.2 ENE 17 20 9 11 1020.1 1019.6 0.0
03/09:00am 27.4 28.0 19.5 62 5.1 ENE 15 20 8 11 1020.1 1019.6 0.0
03/08:30am 26.9 27.9 20.3 67 4.3 ENE 15 20 8 11 1020.1 1019.6 0.0
03/08:00am 25.4 25.7 19.5 70 3.8 NE 17 20 9 11 1020.1 1019.6 0.0
03/07:30am 24.9 25.1 20.2 75 3.1 ENE 19 22 10 12 1020.2 1019.7 0.0
03/07:00am 24.5 24.5 20.2 77 2.8 ENE 20 24 11 13 1020.2 1019.7 0.0
03/06:30am 24.4 22.9 20.3 78 2.7 ENE 28 33 15 18 1019.7 1019.2 0.0
03/06:00am 24.1 23.7 20.2 79 2.5 ENE 22 28 12 15 1019.6 1019.1 0.0
03/05:30am 24.1 22.8 20.6 81 2.3 ENE 28 32 15 17 1019.1 1018.6 0.0
03/05:00am 23.5 22.5 20.4 83 2.0 ENE 26 33 14 18 1018.6 1018.1 0.0
03/04:30am 23.8 23.5 21.1 85 1.8 ENE 24 30 13 16 1018.5 1018.0 0.0
03/04:00am 23.8 23.0 20.9 84 1.9 ENE 26 30 14 16 1018.4 1017.9 0.0
03/03:30am 23.8 24.4 21.3 86 1.7 ENE 20 24 11 13 1018.7 1018.2 0.0
03/03:00am 24.0 24.9 21.5 86 1.7 ENE 19 20 10 11 1019.3 1018.8 0.0
03/02:30am 24.2 26.6 21.5 85 1.8 ENE 11 13 6 7 1019.8 1019.3 0.0
03/02:00am 24.1 25.3 21.4 85 1.8 ENE 17 20 9 11 1019.8 1019.3 0.0
03/01:30am 24.1 25.4 21.6 86 1.7 E 17 19 9 10 1019.8 1019.3 0.0
03/01:00am 24.0 25.3 21.7 87 1.5 E 17 19 9 10 1020.2 1019.7 0.0
03/12:30am 24.2 25.8 22.1 88 1.4 ESE 17 20 9 11 1020.2 1019.7 0.0
03/12:00am 24.2 25.6 21.9 87 1.5 E 17 20 9 11 1020.1 1019.6 0.0
 
Date/Time
EST
Temp
°C
App
Temp
°C
Dew
Point
°C
Rel
Hum
%
Delta-T
°C
Wind Press
QNH
hPa
Press
MSL
hPa
Rain since
9am
mm
Dir  Spd
km/h
Gust
km/h
Spd
kts
Gust
kts
02/11:30pm 24.2 24.7 21.9 87 1.5 E 22 28 12 15 1019.6 1019.1 0.0
02/11:00pm 24.2 23.3 21.5 85 1.8 ENE 28 33 15 18 1019.3 1018.8 0.0
02/10:30pm 24.3 23.2 21.8 86 1.7 ENE 30 32 16 17 1019.2 1018.7 0.0
02/10:00pm 24.4 23.6 21.7 85 1.8 ENE 28 32 15 17 1019.7 1019.2 0.0
02/09:30pm 24.4 23.9 21.5 84 1.9 ENE 26 30 14 16 1019.6 1019.1 0.0
02/09:00pm 24.5 25.1 21.4 83 2.1 NE 20 26 11 14 1019.4 1018.9 0.0
02/08:30pm 24.6 24.5 21.5 83 2.1 NE 24 30 13 16 1018.2 1017.7 0.0
02/08:00pm 24.3 22.8 21.0 82 2.2 NE 30 33 16 18 1017.2 1016.7 0.0
02/07:30pm 24.6 23.8 21.7 84 1.9 NE 28 32 15 17 1017.1 1016.6 0.0
02/07:00pm 24.6 24.1 21.5 83 2.1 NE 26 32 14 17 1017.6 1017.1 0.0
02/06:30pm 24.6 24.2 21.7 84 1.9 NE 26 33 14 18 1017.0 1016.5 0.0
02/06:00pm 24.7 25.0 21.6 83 2.1 NNE 22 28 12 15 1015.7 1015.2 0.0
02/05:30pm 24.7 25.5 21.8 84 1.9 N 20 26 11 14 1015.1 1014.6 0.0
02/05:00pm 24.9 25.2 21.6 82 2.2 N 22 30 12 16 1015.2 1014.7 0.0
02/04:30pm 25.7 25.4 21.8 79 2.6 N 26 35 14 19 1014.4 1013.9 0.0

Other formats

Comma delimited format used in spreadsheet applications
http://www.bom.gov.au/fwo/IDQ60801/IDQ60801.94594.axf

JavaScript Object Notation format (JSON) in row-major order
http://www.bom.gov.au/fwo/IDQ60801/IDQ60801.94594.json

Data quality

Most of these data are generated automatically and are frequently updated. Quality checks on data are not normally performed. It is possible for incorrect values to appear. Refer to information at About Latest Weather Observations and please check the disclaimer before using these data.